createdAt,value
2023-05-02T00:02:06.392Z,99967.84
2023-05-02T00:04:34.285Z,99961.06
2023-05-02T00:07:01.581Z,99971.13
2023-05-02T00:09:29.714Z,99966.50
2023-05-02T00:11:58.255Z,99968.25
2023-05-02T00:14:26.293Z,99964.34
2023-05-02T00:16:54.096Z,99965.44
2023-05-02T00:19:21.928Z,99958.03
2023-05-02T00:21:50.723Z,99956.69
2023-05-02T00:24:21.016Z,99952.03
2023-05-02T00:26:48.801Z,99950.22
2023-05-02T00:29:16.364Z,99948.06
2023-05-02T00:31:44.464Z,99951.84
2023-05-02T00:34:12.436Z,99959.88
2023-05-02T00:36:40.097Z,99957.34
2023-05-02T00:39:07.784Z,99950.16
2023-05-02T00:41:35.867Z,99945.94
2023-05-02T00:44:03.327Z,99942.19
2023-05-02T00:46:31.355Z,99955.37
2023-05-02T00:48:59.351Z,99953.34
2023-05-02T00:51:27.831Z,99956.13
2023-05-02T00:53:55.231Z,99952.78
2023-05-02T00:56:22.834Z,99948.59
2023-05-02T00:58:50.239Z,99947.87
2023-05-02T01:01:21.062Z,99955.63
2023-05-02T01:04:09.369Z,99951.53
2023-05-02T01:06:56.233Z,99962.56
2023-05-02T01:09:27.750Z,99958.50
2023-05-02T01:12:13.828Z,99958.41
2023-05-02T01:14:42.412Z,99950.84
2023-05-02T01:17:15.366Z,99957.03
2023-05-02T01:19:51.383Z,99955.53
2023-05-02T01:22:19.907Z,99954.69
2023-05-02T01:25:00.816Z,99948.06
2023-05-02T01:27:29.134Z,99945.31
2023-05-02T01:29:57.701Z,99949.44
2023-05-02T01:32:25.388Z,99955.34
2023-05-02T01:34:52.900Z,99950.03
2023-05-02T01:37:20.806Z,99947.25
2023-05-02T01:39:48.124Z,99942.94
2023-05-02T01:42:15.554Z,99939.97
2023-05-02T01:44:44.611Z,99945.94
2023-05-02T01:47:11.914Z,99938.69
2023-05-02T01:49:39.522Z,99936.38
2023-05-02T01:52:08.517Z,99937.63
2023-05-02T01:54:35.998Z,99934.31
2023-05-02T01:57:05.238Z,99935.88
2023-05-02T01:59:34.022Z,99928.84
2023-05-02T02:02:02.098Z,99929.09
2023-05-02T02:04:30.137Z,99928.12
2023-05-02T02:07:04.190Z,99933.84
2023-05-02T02:09:32.230Z,99933.84
2023-05-02T02:12:06.532Z,99930.97
2023-05-02T02:14:35.699Z,99917.22
2023-05-02T02:17:06.621Z,99919.28
2023-05-02T02:19:35.793Z,99920.31
2023-05-02T02:22:03.817Z,99920.31
2023-05-02T02:24:31.062Z,99914.47
2023-05-02T02:26:59.180Z,99918.84
2023-05-02T02:29:28.421Z,99916.19
2023-05-02T02:31:55.675Z,99917.34
2023-05-02T02:34:23.216Z,99919.25
2023-05-02T02:36:53.743Z,99923.97
2023-05-02T02:39:40.239Z,99918.97
2023-05-02T02:42:33.521Z,99915.41
2023-05-02T02:45:15.630Z,99917.81
2023-05-02T02:47:51.056Z,99920.44
2023-05-02T02:50:37.093Z,99923.81
2023-05-02T02:53:09.545Z,99915.41
2023-05-02T02:55:46.638Z,99915.56
2023-05-02T02:58:21.718Z,99927.53
2023-05-02T03:00:49.962Z,99919.84
2023-05-02T03:03:17.788Z,99926.03
2023-05-02T03:05:45.395Z,99924.47
2023-05-02T03:08:13.805Z,99928.28
2023-05-02T03:10:41.923Z,99930.94
2023-05-02T03:13:13.445Z,99931.91
2023-05-02T03:15:54.259Z,99935.72
2023-05-02T03:18:22.816Z,99932.41
2023-05-02T03:20:51.011Z,99935.34
2023-05-02T03:23:19.203Z,99939.16
2023-05-02T03:25:53.880Z,99934.78
2023-05-02T03:28:22.834Z,99932.84
2023-05-02T03:30:51.320Z,99939.19
2023-05-02T03:33:25.676Z,99938.88
2023-05-02T03:35:55.746Z,99932.75
2023-05-02T03:38:23.889Z,99947.13
2023-05-02T03:40:51.849Z,99938.31
2023-05-02T03:43:19.889Z,99941.53
2023-05-02T03:45:48.804Z,99944.81
2023-05-02T03:48:17.466Z,99943.69
2023-05-02T03:50:45.770Z,99948.63
2023-05-02T03:53:16.148Z,99940.16
2023-05-02T03:55:44.582Z,99946.44
2023-05-02T03:58:13.519Z,99936.50
2023-05-02T04:00:42.952Z,99952.22
2023-05-02T04:03:12.220Z,99948.03
2023-05-02T04:05:45.461Z,99959.06
2023-05-02T04:08:15.457Z,99955.09
2023-05-02T04:10:43.282Z,99957.06
2023-05-02T04:13:19.564Z,99958.78
2023-05-02T04:15:58.703Z,99954.72
2023-05-02T04:18:35.241Z,99954.34
2023-05-02T04:21:04.810Z,99953.97
2023-05-02T04:23:33.569Z,99953.97
2023-05-02T04:26:02.562Z,99955.37
2023-05-02T04:28:31.040Z,99963.00
2023-05-02T04:31:07.770Z,99964.16
2023-05-02T04:33:39.651Z,99962.22
2023-05-02T04:36:14.073Z,99959.34
2023-05-02T04:38:43.170Z,99962.19
2023-05-02T04:41:11.373Z,99963.19
2023-05-02T04:43:40.631Z,99960.22
2023-05-02T04:46:09.334Z,99958.44
2023-05-02T04:48:43.691Z,99962.94
2023-05-02T04:51:19.503Z,99967.09
2023-05-02T04:53:52.098Z,99969.53
2023-05-02T04:56:20.086Z,99974.47
2023-05-02T04:58:51.588Z,99967.28
2023-05-02T05:01:19.720Z,99968.59
2023-05-02T05:03:49.106Z,99970.34
2023-05-02T05:06:24.578Z,99970.16
2023-05-02T05:08:54.848Z,99979.19
2023-05-02T05:11:23.968Z,99971.88
2023-05-02T05:13:52.560Z,99972.53
2023-05-02T05:16:21.758Z,99972.50
2023-05-02T05:18:50.270Z,99973.91
2023-05-02T05:21:22.574Z,99979.66
2023-05-02T05:23:53.408Z,99983.72
2023-05-02T05:26:29.572Z,99979.03
2023-05-02T05:29:00.678Z,99984.84
2023-05-02T05:31:30.683Z,99991.59
2023-05-02T05:33:59.221Z,99982.84
2023-05-02T05:36:28.050Z,99989.38
2023-05-02T05:38:55.842Z,99992.38
2023-05-02T05:41:30.678Z,99998.63
2023-05-02T05:43:59.508Z,99991.06
2023-05-02T05:46:28.212Z,99999.69
2023-05-02T05:48:57.777Z,100004.28
2023-05-02T05:51:27.982Z,100004.75
2023-05-02T05:53:59.514Z,100007.00
2023-05-02T05:56:30.527Z,100004.62
2023-05-02T05:58:58.885Z,100012.66
2023-05-02T06:01:29.834Z,100002.38
2023-05-02T06:03:59.637Z,100007.09
2023-05-02T06:06:31.765Z,100005.47
2023-05-02T06:09:00.362Z,100007.78
2023-05-02T06:11:28.254Z,100004.41
2023-05-02T06:14:13.527Z,100015.91
2023-05-02T06:17:16.545Z,100003.00
2023-05-02T06:20:26.909Z,100021.19
2023-05-02T06:22:55.608Z,100005.19
2023-05-02T06:25:39.648Z,100018.81
2023-05-02T06:28:12.344Z,100007.44
2023-05-02T06:30:46.852Z,100010.25
2023-05-02T06:33:15.193Z,100008.62
2023-05-02T06:35:43.813Z,100023.28
2023-05-02T06:38:16.582Z,100009.69
2023-05-02T06:40:52.553Z,100017.50
2023-05-02T06:43:21.677Z,100017.25
2023-05-02T06:45:53.505Z,100021.91
2023-05-02T06:48:22.205Z,100024.81
2023-05-02T06:50:52.326Z,100013.97
2023-05-02T06:53:26.739Z,100025.56
2023-05-02T06:55:54.863Z,100015.09
2023-05-02T06:58:23.106Z,100022.88
2023-05-02T07:00:55.803Z,100017.38
2023-05-02T07:03:24.764Z,100004.78
2023-05-02T07:05:59.339Z,100014.66
2023-05-02T07:08:30.452Z,100021.72
2023-05-02T07:10:58.448Z,100008.84
2023-05-02T07:13:26.937Z,100010.59
2023-05-02T07:16:01.606Z,100015.91
2023-05-02T07:18:31.997Z,100009.66
2023-05-02T07:21:24.902Z,100008.47
2023-05-02T07:24:05.550Z,100004.00
2023-05-02T07:26:56.126Z,100004.84
2023-05-02T07:33:57.227Z,100010.97
2023-05-02T07:36:41.463Z,100011.16
2023-05-02T07:39:24.665Z,100009.00
2023-05-02T07:42:11.586Z,100014.94
2023-05-02T07:44:53.888Z,100016.37
2023-05-02T07:47:36.910Z,100015.69
2023-05-02T07:50:31.166Z,100002.75
2023-05-02T07:53:14.736Z,100005.28
2023-05-02T07:55:57.346Z,100014.34
2023-05-02T07:58:52.644Z,100019.72
2023-05-02T08:01:33.328Z,100008.81
2023-05-02T08:04:19.201Z,100014.13
2023-05-02T08:07:15.093Z,100014.53
2023-05-02T08:10:00.560Z,100016.06
2023-05-02T08:12:52.588Z,100019.41
2023-05-02T08:15:34.528Z,100010.06
2023-05-02T08:18:17.759Z,100021.69
2023-05-02T08:21:13.186Z,100016.63
2023-05-02T08:23:52.879Z,100019.03
2023-05-02T08:26:45.819Z,100015.47
2023-05-02T08:29:26.864Z,100014.84
2023-05-02T08:32:18.794Z,100005.91
2023-05-02T08:34:59.183Z,100011.84
2023-05-02T08:37:50.873Z,100007.81
2023-05-02T08:40:40.864Z,99995.66
2023-05-02T08:43:24.338Z,100000.44
2023-05-02T08:46:11.508Z,99997.47
2023-05-02T08:48:59.094Z,100002.00
2023-05-02T08:51:51.843Z,100001.25
2023-05-02T08:54:37.670Z,99986.44
2023-05-02T08:57:21.015Z,99994.81
2023-05-02T09:00:16.833Z,99988.47
2023-05-02T09:02:58.876Z,99993.09
2023-05-02T09:05:55.077Z,99990.53
2023-05-02T09:08:37.884Z,99979.88
2023-05-02T09:11:34.873Z,99993.63
2023-05-02T09:14:18.094Z,99975.28
2023-05-02T09:17:13.777Z,99974.88
2023-05-02T09:20:01.192Z,99977.06
2023-05-02T09:22:54.951Z,99986.22
2023-05-02T09:25:39.716Z,99984.91
2023-05-02T09:28:21.632Z,99971.88
2023-05-02T09:31:22.971Z,99981.44
2023-05-02T09:34:08.659Z,99979.75
2023-05-02T09:39:46.998Z,99984.59
2023-05-02T09:42:34.317Z,99990.00
2023-05-02T09:45:27.820Z,99984.44
2023-05-02T09:48:08.663Z,99981.31
2023-05-02T09:50:51.153Z,99972.69
2023-05-02T09:53:34.862Z,99973.53
2023-05-02T09:59:14.146Z,99966.25
2023-05-02T10:02:10.539Z,99976.22
2023-05-02T10:05:03.393Z,99965.63
2023-05-02T10:07:47.220Z,99970.06
2023-05-02T10:10:46.257Z,99964.34
2023-05-02T10:16:26.576Z,99966.66
2023-05-02T10:19:13.498Z,99975.53
2023-05-02T10:22:06.249Z,99968.81
2023-05-02T10:24:56.137Z,99963.81
2023-05-02T10:31:50.946Z,99967.44
2023-05-02T10:34:41.834Z,99958.44
2023-05-02T10:41:35.693Z,99958.44
2023-05-02T10:44:39.732Z,99959.38
2023-05-02T10:47:33.808Z,99965.75
2023-05-02T10:50:43.401Z,99960.47
2023-05-02T10:53:27.199Z,99954.53
2023-05-02T10:56:25.872Z,99947.47
2023-05-02T10:59:33.282Z,99951.19
2023-05-02T11:02:31.239Z,99943.06
2023-05-02T11:05:15.216Z,99958.91
2023-05-02T11:08:17.963Z,99957.47
2023-05-02T11:11:00.485Z,99949.91
2023-05-02T11:13:50.715Z,99937.31
2023-05-02T11:16:59.094Z,99941.13
2023-05-02T11:19:44.616Z,99945.34
2023-05-02T11:26:23.485Z,99933.13
2023-05-02T11:29:31.858Z,99925.34
2023-05-02T11:32:14.686Z,99925.78
2023-05-02T11:35:10.655Z,99922.84
2023-05-02T11:38:00.754Z,99920.72
2023-05-02T11:40:58.196Z,99924.59
2023-05-02T11:44:03.542Z,99921.56
2023-05-02T11:46:49.830Z,99919.34
2023-05-02T11:49:38.873Z,99910.88
2023-05-02T11:52:22.160Z,99911.06
2023-05-02T11:55:14.602Z,99912.56
2023-05-02T11:58:08.552Z,99913.56
2023-05-02T12:00:52.306Z,99913.09
2023-05-02T12:03:38.879Z,99904.97
2023-05-02T12:06:34.153Z,99913.59
2023-05-02T12:09:17.534Z,99914.47
2023-05-02T12:12:10.835Z,99914.63
2023-05-02T12:14:54.028Z,99917.47
2023-05-02T12:17:52.453Z,99912.94
2023-05-02T12:20:33.700Z,99897.78
2023-05-02T12:23:01.633Z,99894.81
2023-05-02T12:25:30.164Z,99907.69
2023-05-02T12:30:54.069Z,99898.69
2023-05-02T12:33:48.671Z,99902.06
2023-05-02T12:37:23.650Z,99905.28
2023-05-02T12:40:17.809Z,99901.75
2023-05-02T12:43:11.709Z,99903.09
2023-05-02T12:45:57.636Z,99905.59
2023-05-02T12:49:01.898Z,99908.81
2023-05-02T12:51:59.704Z,99892.25
2023-05-02T12:55:00.890Z,99899.88
2023-05-02T12:57:44.533Z,99896.31
2023-05-02T13:00:47.255Z,99889.53
2023-05-02T13:03:29.792Z,99885.34
2023-05-02T13:06:15.211Z,99887.00
2023-05-02T13:09:08.244Z,99885.09
2023-05-02T13:11:49.488Z,99886.41
2023-05-02T13:14:40.958Z,99885.41
2023-05-02T13:17:28.977Z,99878.06
2023-05-02T13:20:10.930Z,99881.19
2023-05-02T13:22:54.719Z,99883.44
2023-05-02T13:25:51.530Z,99876.19
2023-05-02T13:28:46.520Z,99875.19
2023-05-02T13:31:32.889Z,99874.94
2023-05-02T13:34:18.533Z,99879.09
2023-05-02T13:40:14.626Z,99874.38
2023-05-02T13:42:43.093Z,99869.22
2023-05-02T13:45:32.969Z,99864.66
2023-05-02T13:48:52.899Z,99871.94
2023-05-02T13:55:18.631Z,99870.91
2023-05-02T13:58:01.737Z,99867.62
2023-05-02T14:00:58.693Z,99869.88
2023-05-02T14:03:55.384Z,99873.25
2023-05-02T14:06:40.520Z,99870.09
2023-05-02T14:12:10.920Z,99877.78
2023-05-02T14:14:50.666Z,99871.41
2023-05-02T14:17:46.739Z,99866.75
2023-05-02T14:20:35.766Z,99863.59
2023-05-02T14:23:31.629Z,99865.31
2023-05-02T14:26:12.976Z,99859.16
2023-05-02T14:29:08.251Z,99874.44
2023-05-02T14:31:55.700Z,99862.16
2023-05-02T14:34:39.447Z,99874.09
2023-05-02T14:37:24.178Z,99870.81
2023-05-02T14:40:08.350Z,99863.72
2023-05-02T14:46:32.536Z,99867.97
2023-05-02T14:49:27.397Z,99870.47
2023-05-02T14:52:10.065Z,99876.12
2023-05-02T14:55:08.086Z,99878.66
2023-05-02T14:57:59.540Z,99873.09
2023-05-02T15:00:46.936Z,99864.41
2023-05-02T15:03:33.043Z,99871.03
2023-05-02T15:06:16.856Z,99876.31
2023-05-02T15:09:13.170Z,99867.00
2023-05-02T15:11:58.636Z,99877.94
2023-05-02T15:14:44.828Z,99871.16
2023-05-02T15:17:28.589Z,99872.44
2023-05-02T15:23:07.689Z,99867.97
2023-05-02T15:25:52.648Z,99867.94
2023-05-02T15:28:41.703Z,99865.97
2023-05-02T15:31:26.677Z,99872.16
2023-05-02T15:34:25.159Z,99871.00
2023-05-02T15:40:58.821Z,99877.19
2023-05-02T15:43:53.023Z,99880.16
2023-05-02T15:46:47.247Z,99894.03
2023-05-02T15:49:33.218Z,99888.41
2023-05-02T15:52:25.839Z,99894.59
2023-05-02T15:55:12.261Z,99878.22
2023-05-02T15:58:10.653Z,99883.81
2023-05-02T16:00:57.926Z,99885.31
2023-05-02T16:03:51.442Z,99889.94
2023-05-02T16:06:31.210Z,99893.03
2023-05-02T16:09:21.600Z,99891.56
2023-05-02T16:12:03.958Z,99886.00
2023-05-02T16:14:57.234Z,99891.47
2023-05-02T16:17:48.008Z,99891.63
2023-05-02T16:20:43.404Z,99884.38
2023-05-02T16:23:32.616Z,99895.66
2023-05-02T16:26:28.155Z,99887.13
2023-05-02T16:31:54.720Z,99891.81
2023-05-02T16:34:56.871Z,99895.28
2023-05-02T16:37:41.741Z,99891.03
2023-05-02T16:40:27.368Z,99891.72
2023-05-02T16:43:18.633Z,99895.47
2023-05-02T16:46:06.224Z,99889.09
2023-05-02T16:48:49.700Z,99889.66
2023-05-02T16:51:39.686Z,99895.34
2023-05-02T16:54:35.761Z,99903.25
2023-05-02T16:57:20.945Z,99908.34
2023-05-02T17:00:17.739Z,99924.37
2023-05-02T17:03:01.649Z,99928.03
2023-05-02T17:05:45.917Z,99926.44
2023-05-02T17:08:40.865Z,99940.06
2023-05-02T17:11:25.637Z,99942.19
2023-05-02T17:14:13.828Z,99938.72
2023-05-02T17:17:00.285Z,99934.72
2023-05-02T17:19:44.596Z,99935.25
2023-05-02T17:22:27.123Z,99948.00
2023-05-02T17:25:23.660Z,99948.00
2023-05-02T17:28:07.741Z,99958.84
2023-05-02T17:30:59.904Z,99959.31
2023-05-02T17:33:53.677Z,99966.53
2023-05-02T17:36:42.622Z,99968.41
2023-05-02T17:39:38.570Z,99965.22
2023-05-02T17:42:34.063Z,99957.41
2023-05-02T17:45:18.350Z,99962.50
2023-05-02T17:48:14.744Z,99971.03
2023-05-02T17:51:07.210Z,99961.97
2023-05-02T17:54:08.593Z,99963.94
2023-05-02T17:56:52.861Z,99972.16
2023-05-02T18:02:27.872Z,99972.16
2023-05-02T18:05:12.572Z,99970.03
2023-05-02T18:08:14.873Z,99980.78
2023-05-02T18:14:42.667Z,99989.03
2023-05-02T18:17:27.188Z,99994.34
2023-05-02T18:20:30.703Z,100011.84
2023-05-02T18:23:10.120Z,100014.41
2023-05-02T18:26:11.921Z,100017.47
2023-05-02T18:28:54.996Z,100013.03
2023-05-02T18:31:40.510Z,100019.00
2023-05-02T18:34:24.661Z,100018.53
2023-05-02T18:37:07.961Z,100028.25
2023-05-02T18:40:03.784Z,100022.56
2023-05-02T18:42:53.729Z,100036.09
2023-05-02T18:45:45.656Z,100041.88
2023-05-02T18:48:27.618Z,100053.16
2023-05-02T18:51:19.553Z,100059.41
2023-05-02T18:54:03.880Z,100055.66
2023-05-02T18:56:59.989Z,100048.97
2023-05-02T18:59:51.666Z,100046.41
2023-05-02T19:05:29.445Z,100068.31
2023-05-02T19:08:14.852Z,100080.28
2023-05-02T19:11:05.681Z,100093.78
2023-05-02T19:14:03.716Z,100103.41
2023-05-02T19:16:50.102Z,100106.53
2023-05-02T19:20:10.963Z,100113.25
2023-05-02T19:23:07.199Z,100112.28
2023-05-02T19:25:42.635Z,100106.31
2023-05-02T19:28:24.888Z,100113.09
2023-05-02T19:31:17.714Z,100102.44
2023-05-02T19:34:07.077Z,100094.09
2023-05-02T19:36:57.043Z,100097.19
2023-05-02T19:39:41.187Z,100089.88
2023-05-02T19:42:16.870Z,100085.56
2023-05-02T19:45:03.831Z,100088.97
2023-05-02T19:48:00.178Z,100089.59
2023-05-02T19:50:57.712Z,100096.31
2023-05-02T19:53:41.610Z,100086.66
2023-05-02T19:56:26.162Z,100085.81
2023-05-02T20:01:58.956Z,100086.03
2023-05-02T20:04:55.886Z,100081.81
2023-05-02T20:07:44.581Z,100089.84
2023-05-02T20:10:40.966Z,100086.12
2023-05-02T20:13:25.679Z,100100.06
2023-05-02T20:16:32.142Z,100103.06
2023-05-02T20:19:15.150Z,100114.16
2023-05-02T20:22:24.308Z,100111.59
2023-05-02T20:25:04.155Z,100126.53
2023-05-02T20:28:11.597Z,100126.75
2023-05-02T20:30:53.891Z,100118.31
2023-05-02T20:33:58.621Z,100117.53
2023-05-02T20:36:43.373Z,100123.09
2023-05-02T20:39:48.879Z,100121.16
2023-05-02T20:42:24.873Z,100121.34
2023-05-02T20:45:25.695Z,100133.34
2023-05-02T20:48:18.377Z,100133.91
2023-05-02T20:51:09.011Z,100135.41
2023-05-02T20:53:57.274Z,100154.44
2023-05-02T20:56:39.435Z,100154.25
2023-05-02T20:59:14.096Z,100155.53
2023-05-02T21:02:03.875Z,100143.31
2023-05-02T21:04:32.903Z,100148.41
2023-05-02T21:07:09.690Z,100152.47
2023-05-02T21:09:37.217Z,100151.25
2023-05-02T21:12:08.712Z,100146.91
2023-05-02T21:17:17.621Z,100159.28
2023-05-02T21:19:47.794Z,100154.06
2023-05-02T21:22:15.398Z,100153.63
2023-05-02T21:24:48.553Z,100157.28
2023-05-02T21:27:17.027Z,100153.81
2023-05-02T21:29:45.200Z,100155.53
2023-05-02T21:32:12.810Z,100157.16
2023-05-02T21:34:40.848Z,100157.47
2023-05-02T21:37:08.471Z,100152.50
2023-05-02T21:39:36.120Z,100162.63
2023-05-02T21:42:05.829Z,100160.88
2023-05-02T21:44:34.134Z,100163.81
2023-05-02T21:47:02.852Z,100163.38
2023-05-02T21:49:31.190Z,100169.81
2023-05-02T21:51:59.982Z,100167.78
2023-05-02T21:54:35.568Z,100173.34
2023-05-02T21:57:03.753Z,100168.31
2023-05-02T21:59:31.186Z,100170.13
2023-05-02T22:01:58.819Z,100164.56
2023-05-02T22:04:27.387Z,100168.97
2023-05-02T22:06:55.739Z,100181.50
2023-05-02T22:09:24.207Z,100175.06
2023-05-02T22:11:55.804Z,100179.78
2023-05-02T22:14:33.291Z,100190.91
2023-05-02T22:17:08.900Z,100188.22
2023-05-02T22:19:37.572Z,100192.16
2023-05-02T22:22:05.735Z,100188.31
2023-05-02T22:24:33.830Z,100190.03
2023-05-02T22:27:03.721Z,100186.63
2023-05-02T22:29:31.675Z,100187.34
2023-05-02T22:31:59.739Z,100190.25
2023-05-02T22:34:27.445Z,100195.09
2023-05-02T22:36:55.803Z,100186.81
2023-05-02T22:39:24.374Z,100185.44
2023-05-02T22:41:51.790Z,100193.56
2023-05-02T22:44:19.850Z,100193.06
2023-05-02T22:46:48.228Z,100187.38
2023-05-02T22:49:15.971Z,100192.28
2023-05-02T22:51:45.216Z,100194.56
2023-05-02T22:54:15.228Z,100200.63
2023-05-02T22:56:43.063Z,100195.72
2023-05-02T22:59:10.782Z,100203.63
2023-05-02T23:01:38.537Z,100198.19
2023-05-02T23:04:07.509Z,100199.91
2023-05-02T23:06:35.624Z,100203.94
2023-05-02T23:09:03.763Z,100206.09
2023-05-02T23:11:31.387Z,100205.88
2023-05-02T23:13:58.873Z,100197.75
2023-05-02T23:16:30.891Z,100198.50
2023-05-02T23:18:59.295Z,100199.66
2023-05-02T23:21:28.079Z,100192.19
2023-05-02T23:23:55.907Z,100194.03
2023-05-02T23:26:23.861Z,100193.06
2023-05-02T23:28:52.133Z,100198.47
2023-05-02T23:31:19.726Z,100193.34
2023-05-02T23:33:47.555Z,100190.16
2023-05-02T23:36:15.509Z,100196.03
2023-05-02T23:38:42.900Z,100191.75
2023-05-02T23:41:10.239Z,100189.63
2023-05-02T23:43:39.453Z,100191.34
2023-05-02T23:46:08.937Z,100182.87
2023-05-02T23:48:36.743Z,100177.13
2023-05-02T23:51:04.717Z,100177.75
2023-05-02T23:53:33.062Z,100183.97
2023-05-02T23:56:01.354Z,100184.78
2023-05-02T23:58:30.131Z,100171.22
